Vauxhall, New Jersey
Current Conditions -  °F | °C
As of 11:51 AM on Sunday 21 Dec 2014 (Local Time) from KEWR Reporting Station
Overcast Overcast  
Wind Chill: 27°   Ceiling: 1500
Heat Index: 34°   Visibility: 10mi
Dew Point: 27°   Wind: 8mph
Humidity: 75%   Direction: 330°NNW
Pressure: 30.31"   Gusts: NA
Location:  40.73°N, 74.28°W
Report Text: KEWR 211651Z 33007KT 10SM FEW010 BKN015 OVC022 01/M03 A3031 RMK AO2 SLP263 T00111028
Loading
Personal Weather Stations






























Interactive Weather Map New forecast layout! Learn more

10-Day Weather Forecast

Advertisements
Track Severe Weather on mobile